createdAt,value
2022-11-06T00:00:25.388Z,23.27
2022-11-06T00:01:25.405Z,23.31
2022-11-06T00:02:25.419Z,23.23
2022-11-06T00:03:25.446Z,23.31
2022-11-06T00:04:25.339Z,23.38
2022-11-06T00:05:25.339Z,23.31
2022-11-06T00:06:25.319Z,23.32
2022-11-06T00:07:25.307Z,23.26
2022-11-06T00:08:25.304Z,23.23
2022-11-06T00:09:25.285Z,23.31
2022-11-06T00:10:25.275Z,23.22
2022-11-06T00:11:25.264Z,23.26
2022-11-06T00:12:25.270Z,23.31
2022-11-06T00:13:25.240Z,23.29
2022-11-06T00:14:25.277Z,23.26
2022-11-06T00:15:25.224Z,23.22
2022-11-06T00:16:25.208Z,23.24
2022-11-06T00:17:25.197Z,23.32
2022-11-06T00:18:25.187Z,23.24
2022-11-06T00:19:25.174Z,23.26
2022-11-06T00:20:25.178Z,23.24
2022-11-06T00:21:25.152Z,23.23
2022-11-06T00:22:25.140Z,23.23
2022-11-06T00:23:25.128Z,23.26
2022-11-06T00:24:25.119Z,23.23
2022-11-06T00:25:25.110Z,23.20
2022-11-06T00:26:25.104Z,23.26
2022-11-06T00:27:25.089Z,23.24
2022-11-06T00:28:25.091Z,23.24
2022-11-06T00:29:25.067Z,23.23
2022-11-06T00:30:25.055Z,23.24
2022-11-06T00:31:25.041Z,23.22
2022-11-06T00:32:25.038Z,23.20
2022-11-06T00:33:25.020Z,23.24
2022-11-06T00:34:25.008Z,23.26
2022-11-06T00:35:25.000Z,23.23
2022-11-06T00:36:24.988Z,23.26
2022-11-06T00:37:24.977Z,23.20
2022-11-06T00:38:24.972Z,23.26
2022-11-06T00:39:24.953Z,23.20
2022-11-06T00:40:25.214Z,23.24
2022-11-06T00:41:24.934Z,23.20
2022-11-06T00:42:24.919Z,23.26
2022-11-06T00:43:24.908Z,23.26
2022-11-06T00:44:24.920Z,23.19
2022-11-06T00:45:24.889Z,23.26
2022-11-06T00:46:24.874Z,23.26
2022-11-06T00:47:24.866Z,23.20
2022-11-06T00:48:24.853Z,23.20
2022-11-06T00:49:24.841Z,23.24
2022-11-06T00:50:24.860Z,23.29
2022-11-06T00:51:24.847Z,23.22
2022-11-06T00:52:24.808Z,23.22
2022-11-06T00:53:24.796Z,23.19
2022-11-06T00:54:24.789Z,23.20
2022-11-06T00:55:24.775Z,23.23
2022-11-06T00:56:24.780Z,23.29
2022-11-06T00:57:24.752Z,23.22
2022-11-06T00:58:24.742Z,23.26
2022-11-06T00:59:24.730Z,23.20
2022-11-06T01:00:24.738Z,23.23
2022-11-06T01:01:24.875Z,23.19
2022-11-06T01:02:24.852Z,23.22
2022-11-06T01:03:24.685Z,23.23
2022-11-06T01:04:24.676Z,23.24
2022-11-06T01:05:24.666Z,23.24
2022-11-06T01:06:24.653Z,23.24
2022-11-06T01:07:24.645Z,23.20
2022-11-06T01:08:24.639Z,23.19
2022-11-06T01:09:24.622Z,23.20
2022-11-06T01:10:24.616Z,23.22
2022-11-06T01:11:24.602Z,23.15
2022-11-06T01:12:24.591Z,23.22
2022-11-06T01:13:24.578Z,23.17
2022-11-06T01:14:24.571Z,23.22
2022-11-06T01:15:24.554Z,23.22
2022-11-06T01:16:24.561Z,23.26
2022-11-06T01:17:24.531Z,23.14
2022-11-06T01:18:24.521Z,23.22
2022-11-06T01:19:24.509Z,23.24
2022-11-06T01:20:24.519Z,23.23
2022-11-06T01:21:24.486Z,23.19
2022-11-06T01:22:24.476Z,23.19
2022-11-06T01:23:24.464Z,23.20
2022-11-06T01:24:24.528Z,23.22
2022-11-06T01:25:24.449Z,23.22
2022-11-06T01:26:37.214Z,23.17
2022-11-06T01:27:26.917Z,23.32
2022-11-06T01:28:24.410Z,23.24
2022-11-06T01:29:24.398Z,23.22
2022-11-06T01:30:24.388Z,23.22
2022-11-06T01:31:24.376Z,23.15
2022-11-06T01:32:24.413Z,23.23
2022-11-06T01:33:24.355Z,23.22
2022-11-06T01:34:24.342Z,23.20
2022-11-06T01:35:24.331Z,23.19
2022-11-06T01:36:24.321Z,23.24
2022-11-06T01:37:24.319Z,23.17
2022-11-06T01:38:24.319Z,23.19
2022-11-06T01:39:24.288Z,23.26
2022-11-06T01:40:24.276Z,23.27
2022-11-06T01:41:24.265Z,23.20
2022-11-06T01:42:24.255Z,23.23
2022-11-06T01:43:24.243Z,23.23
2022-11-06T01:44:24.240Z,23.19
2022-11-06T01:45:24.221Z,23.26
2022-11-06T01:46:24.210Z,23.29
2022-11-06T01:47:24.205Z,23.22
2022-11-06T01:48:24.205Z,23.19
2022-11-06T01:49:24.176Z,23.22
2022-11-06T01:50:24.176Z,23.22
2022-11-06T01:51:24.154Z,23.26
2022-11-06T01:52:24.148Z,23.23
2022-11-06T01:53:24.137Z,23.24
2022-11-06T01:54:24.122Z,23.19
2022-11-06T01:55:24.117Z,23.22
2022-11-06T01:56:24.105Z,23.20
2022-11-06T01:57:24.087Z,23.19
2022-11-06T01:58:24.077Z,23.20
2022-11-06T01:59:24.065Z,23.15
2022-11-06T02:00:24.055Z,23.19
2022-11-06T02:01:24.193Z,23.15
2022-11-06T02:02:24.180Z,23.20
2022-11-06T02:03:24.019Z,23.26
2022-11-06T02:04:24.029Z,23.22
2022-11-06T02:05:24.000Z,23.24
2022-11-06T02:06:23.987Z,23.23
2022-11-06T02:07:23.976Z,23.26
2022-11-06T02:08:23.988Z,23.22
2022-11-06T02:09:23.955Z,23.27
2022-11-06T02:10:23.943Z,23.20
2022-11-06T02:11:23.932Z,23.22
2022-11-06T02:12:23.920Z,23.23
2022-11-06T02:13:23.910Z,23.19
2022-11-06T02:14:23.904Z,23.24
2022-11-06T02:15:23.887Z,23.20
2022-11-06T02:16:23.878Z,23.22
2022-11-06T02:17:23.866Z,23.26
2022-11-06T02:18:23.856Z,23.20
2022-11-06T02:19:23.847Z,23.22
2022-11-06T02:20:23.857Z,23.23
2022-11-06T02:21:23.820Z,23.22
2022-11-06T02:22:23.830Z,23.19
2022-11-06T02:23:23.801Z,23.19
2022-11-06T02:24:23.794Z,23.20
2022-11-06T02:25:23.777Z,23.19
2022-11-06T02:26:23.785Z,23.22
2022-11-06T02:27:23.757Z,23.20
2022-11-06T02:28:23.743Z,23.19
2022-11-06T02:29:23.732Z,23.26
2022-11-06T02:30:23.720Z,23.23
2022-11-06T02:31:23.710Z,23.19
2022-11-06T02:32:23.726Z,23.22
2022-11-06T02:33:23.687Z,23.19
2022-11-06T02:34:23.678Z,23.27
2022-11-06T02:35:23.664Z,23.20
2022-11-06T02:36:23.670Z,23.19
2022-11-06T02:37:23.642Z,23.19
2022-11-06T02:38:23.637Z,23.19
2022-11-06T02:39:23.621Z,23.19
2022-11-06T02:40:23.610Z,23.29
2022-11-06T02:41:23.597Z,23.20
2022-11-06T02:42:23.588Z,23.24
2022-11-06T02:43:23.577Z,23.22
2022-11-06T02:44:23.593Z,23.22
2022-11-06T02:45:23.554Z,23.22
2022-11-06T02:46:23.542Z,23.20
2022-11-06T02:47:23.534Z,23.23
2022-11-06T02:48:23.519Z,23.23
2022-11-06T02:49:23.509Z,23.26
2022-11-06T02:50:23.521Z,23.15
2022-11-06T02:51:23.486Z,23.22
2022-11-06T02:52:23.496Z,23.14
2022-11-06T02:53:23.465Z,23.26
2022-11-06T02:54:23.453Z,23.19
2022-11-06T02:55:23.444Z,23.20
2022-11-06T02:56:23.437Z,23.22
2022-11-06T02:57:23.420Z,23.15
2022-11-06T02:58:23.410Z,23.19
2022-11-06T02:59:23.405Z,23.19
2022-11-06T03:00:23.388Z,23.17
2022-11-06T03:01:23.540Z,23.26
2022-11-06T03:02:23.602Z,23.22
2022-11-06T03:03:23.354Z,23.22
2022-11-06T03:04:23.342Z,23.26
2022-11-06T03:05:23.332Z,23.20
2022-11-06T03:06:23.321Z,23.19
2022-11-06T03:07:23.316Z,23.20
2022-11-06T03:08:23.419Z,23.22
2022-11-06T03:09:23.291Z,23.24
2022-11-06T03:10:23.276Z,23.19
2022-11-06T03:11:23.265Z,23.19
2022-11-06T03:12:23.254Z,23.20
2022-11-06T03:13:23.244Z,23.22
2022-11-06T03:14:23.240Z,23.22
2022-11-06T03:15:23.222Z,23.22
2022-11-06T03:16:23.209Z,23.19
2022-11-06T03:17:23.199Z,23.19
2022-11-06T03:18:23.188Z,23.26
2022-11-06T03:19:23.176Z,23.22
2022-11-06T03:20:23.186Z,23.22
2022-11-06T03:21:23.155Z,23.20
2022-11-06T03:22:23.144Z,23.19
2022-11-06T03:23:23.132Z,23.19
2022-11-06T03:24:26.931Z,23.19
2022-11-06T03:25:24.136Z,23.24
2022-11-06T03:26:23.098Z,23.22
2022-11-06T03:27:23.086Z,23.19
2022-11-06T03:28:23.077Z,23.22
2022-11-06T03:29:23.065Z,23.26
2022-11-06T03:30:23.054Z,23.17
2022-11-06T03:31:23.067Z,23.24
2022-11-06T03:32:23.032Z,23.19
2022-11-06T03:33:23.021Z,23.22
2022-11-06T03:34:23.009Z,23.24
2022-11-06T03:35:22.997Z,23.19
2022-11-06T03:36:22.987Z,23.22
2022-11-06T03:37:22.996Z,23.19
2022-11-06T03:38:22.965Z,23.22
2022-11-06T03:39:22.954Z,23.19
2022-11-06T03:40:22.960Z,23.17
2022-11-06T03:41:22.934Z,23.17
2022-11-06T03:42:22.920Z,23.19
2022-11-06T03:43:22.925Z,23.20
2022-11-06T03:44:22.898Z,23.19
2022-11-06T03:45:22.887Z,23.20
2022-11-06T03:46:22.879Z,23.22
2022-11-06T03:47:22.869Z,23.29
2022-11-06T03:48:22.864Z,23.20
2022-11-06T03:49:22.893Z,23.19
2022-11-06T03:50:22.833Z,23.19
2022-11-06T03:51:22.820Z,23.22
2022-11-06T03:52:22.810Z,23.17
2022-11-06T03:53:22.800Z,23.22
2022-11-06T03:54:22.789Z,23.19
2022-11-06T03:55:22.802Z,23.20
2022-11-06T03:56:22.789Z,23.19
2022-11-06T03:57:22.764Z,23.26
2022-11-06T03:58:22.845Z,23.19
2022-11-06T03:59:22.733Z,23.20
2022-11-06T04:00:22.762Z,23.20
2022-11-06T04:01:22.866Z,23.15
2022-11-06T04:02:22.860Z,23.23
2022-11-06T04:03:22.689Z,23.20
2022-11-06T04:04:22.677Z,23.15
2022-11-06T04:05:22.667Z,23.24
2022-11-06T04:06:22.661Z,23.17
2022-11-06T04:07:22.650Z,23.17
2022-11-06T04:08:22.633Z,23.15
2022-11-06T04:09:22.622Z,23.15
2022-11-06T04:10:22.611Z,23.22
2022-11-06T04:11:22.599Z,23.17
2022-11-06T04:12:22.606Z,23.17
2022-11-06T04:13:22.592Z,23.19
2022-11-06T04:14:22.569Z,23.22
2022-11-06T04:15:22.555Z,23.15
2022-11-06T04:16:22.549Z,23.15
2022-11-06T04:17:22.533Z,23.22
2022-11-06T04:18:22.521Z,23.15
2022-11-06T04:19:22.517Z,23.15
2022-11-06T04:20:22.500Z,23.22
2022-11-06T04:21:22.489Z,23.15
2022-11-06T04:22:22.476Z,23.17
2022-11-06T04:23:22.470Z,23.17
2022-11-06T04:24:22.456Z,23.09
2022-11-06T04:25:22.482Z,23.17
2022-11-06T04:26:22.434Z,23.15
2022-11-06T04:27:22.421Z,23.11
2022-11-06T04:28:22.523Z,23.24
2022-11-06T04:29:22.399Z,23.12
2022-11-06T04:30:22.390Z,23.15
2022-11-06T04:31:22.402Z,23.09
2022-11-06T04:32:22.376Z,23.12
2022-11-06T04:33:22.358Z,23.14
2022-11-06T04:34:22.345Z,23.14
2022-11-06T04:35:22.334Z,23.17
2022-11-06T04:36:22.324Z,23.15
2022-11-06T04:37:22.339Z,23.20
2022-11-06T04:38:22.304Z,23.08
2022-11-06T04:39:22.289Z,23.09
2022-11-06T04:40:22.279Z,23.15
2022-11-06T04:41:22.291Z,23.08
2022-11-06T04:42:22.258Z,23.12
2022-11-06T04:43:22.253Z,23.08
2022-11-06T04:44:22.352Z,23.11
2022-11-06T04:45:22.223Z,23.11
2022-11-06T04:46:22.213Z,23.07
2022-11-06T04:47:22.199Z,23.11
2022-11-06T04:48:22.190Z,23.08
2022-11-06T04:49:22.197Z,23.09
2022-11-06T04:50:22.168Z,23.09
2022-11-06T04:51:22.160Z,23.14
2022-11-06T04:52:22.150Z,23.11
2022-11-06T04:53:22.137Z,23.12
2022-11-06T04:54:22.122Z,23.02
2022-11-06T04:55:22.116Z,23.05
2022-11-06T04:56:23.868Z,22.97
2022-11-06T04:57:22.090Z,23.01
2022-11-06T04:58:22.081Z,23.09
2022-11-06T04:59:22.068Z,23.01
2022-11-06T05:00:22.074Z,23.12
2022-11-06T05:01:22.280Z,23.09
2022-11-06T05:02:22.144Z,23.12
2022-11-06T05:03:22.023Z,23.02
2022-11-06T05:04:22.013Z,23.05
2022-11-06T05:05:22.001Z,22.99
2022-11-06T05:06:27.018Z,23.11
2022-11-06T05:07:23.008Z,23.07
2022-11-06T05:08:21.968Z,23.04
2022-11-06T05:09:21.957Z,23.14
2022-11-06T05:10:21.947Z,22.97
2022-11-06T05:11:21.934Z,23.05
2022-11-06T05:12:21.923Z,23.05
2022-11-06T05:13:21.919Z,23.04
2022-11-06T05:14:21.902Z,22.96
2022-11-06T05:15:21.891Z,23.04
2022-11-06T05:16:21.897Z,23.05
2022-11-06T05:17:21.868Z,23.08
2022-11-06T05:18:21.859Z,22.96
2022-11-06T05:19:21.851Z,23.02
2022-11-06T05:20:21.835Z,23.04
2022-11-06T05:21:21.823Z,23.05
2022-11-06T05:22:21.813Z,23.04
2022-11-06T05:23:21.801Z,23.01
2022-11-06T05:24:21.790Z,22.99
2022-11-06T05:25:21.785Z,23.04
2022-11-06T05:26:21.768Z,23.02
2022-11-06T05:27:21.756Z,23.04
2022-11-06T05:28:21.751Z,22.99
2022-11-06T05:29:21.736Z,23.05
2022-11-06T05:30:21.724Z,23.02
2022-11-06T05:31:21.729Z,23.02
2022-11-06T05:32:21.721Z,23.01
2022-11-06T05:33:21.690Z,23.05
2022-11-06T05:34:21.693Z,22.99
2022-11-06T05:35:21.670Z,22.96
2022-11-06T05:36:21.676Z,23.01
2022-11-06T05:37:21.666Z,23.05
2022-11-06T05:38:21.635Z,23.01
2022-11-06T05:39:21.624Z,22.99
2022-11-06T05:40:21.613Z,22.99
2022-11-06T05:41:21.602Z,22.97
2022-11-06T05:42:21.602Z,22.96
2022-11-06T05:43:21.626Z,23.05
2022-11-06T05:44:21.568Z,22.99
2022-11-06T05:45:21.558Z,22.96
2022-11-06T05:46:46.795Z,22.97
2022-11-06T05:47:22.535Z,23.04
2022-11-06T05:48:21.544Z,22.99
2022-11-06T05:49:21.518Z,22.96
2022-11-06T05:50:21.506Z,22.97
2022-11-06T05:51:21.491Z,23.02
2022-11-06T05:52:21.482Z,23.04
2022-11-06T05:53:21.469Z,22.97
2022-11-06T05:54:21.459Z,23.02
2022-11-06T05:55:21.465Z,22.99
2022-11-06T05:56:21.435Z,22.94
2022-11-06T05:57:21.424Z,22.99
2022-11-06T05:58:21.416Z,22.89
2022-11-06T05:59:21.403Z,22.90
2022-11-06T06:00:21.391Z,22.99
2022-11-06T06:01:21.452Z,22.87
2022-11-06T06:02:21.522Z,22.90
2022-11-06T06:03:21.358Z,22.96
2022-11-06T06:04:21.364Z,22.99
2022-11-06T06:05:21.335Z,22.90
2022-11-06T06:06:21.324Z,22.93
2022-11-06T06:07:21.319Z,22.89
2022-11-06T06:08:21.304Z,22.92
2022-11-06T06:09:21.294Z,22.93
2022-11-06T06:10:21.280Z,22.86
2022-11-06T06:11:21.272Z,22.89
2022-11-06T06:12:21.258Z,22.87
2022-11-06T06:13:21.277Z,22.89
2022-11-06T06:14:21.237Z,22.97
2022-11-06T06:15:21.226Z,22.87
2022-11-06T06:16:21.213Z,22.92
2022-11-06T06:17:21.204Z,22.86
2022-11-06T06:18:21.191Z,22.92
2022-11-06T06:19:21.200Z,22.89
2022-11-06T06:20:21.193Z,22.90
2022-11-06T06:21:21.159Z,22.90
2022-11-06T06:22:21.148Z,22.96
2022-11-06T06:23:21.141Z,22.96
2022-11-06T06:24:21.185Z,22.86
2022-11-06T06:25:22.935Z,22.97
2022-11-06T06:26:21.104Z,22.92
2022-11-06T06:27:21.091Z,22.87
2022-11-06T06:28:21.080Z,22.90
2022-11-06T06:29:21.070Z,22.84
2022-11-06T06:30:21.058Z,22.92
2022-11-06T06:31:21.066Z,22.86
2022-11-06T06:32:21.040Z,22.89
2022-11-06T06:33:21.027Z,22.89
2022-11-06T06:34:21.014Z,22.89
2022-11-06T06:35:21.002Z,22.86
2022-11-06T06:36:21.014Z,22.92
2022-11-06T06:37:20.994Z,22.87
2022-11-06T06:38:20.971Z,22.89
2022-11-06T06:39:20.958Z,22.87
2022-11-06T06:40:20.946Z,22.90
2022-11-06T06:41:20.935Z,22.90
2022-11-06T06:42:20.925Z,22.89
2022-11-06T06:43:20.926Z,22.87
2022-11-06T06:44:20.904Z,22.93
2022-11-06T06:45:20.891Z,22.89
2022-11-06T06:46:20.885Z,22.89
2022-11-06T06:47:20.871Z,22.90
2022-11-06T06:48:20.858Z,22.90
2022-11-06T06:49:20.881Z,22.92
2022-11-06T06:50:20.836Z,22.94
2022-11-06T06:51:23.887Z,22.93
2022-11-06T06:52:20.837Z,22.87
2022-11-06T06:53:20.801Z,22.86
2022-11-06T06:54:20.791Z,22.87
2022-11-06T06:55:20.810Z,22.93
2022-11-06T06:56:20.771Z,22.86
2022-11-06T06:57:20.758Z,22.86
2022-11-06T06:58:21.181Z,22.89
2022-11-06T06:59:20.736Z,22.87
2022-11-06T07:00:20.724Z,22.89
2022-11-06T07:01:20.921Z,22.90
2022-11-06T07:02:20.828Z,22.92
2022-11-06T07:03:20.694Z,22.94
2022-11-06T07:04:20.683Z,22.89
2022-11-06T07:05:20.669Z,22.89
2022-11-06T07:06:20.657Z,22.92
2022-11-06T07:07:20.664Z,22.86
2022-11-06T07:08:20.748Z,22.89
2022-11-06T07:09:20.624Z,22.92
2022-11-06T07:10:20.615Z,22.90
2022-11-06T07:11:20.601Z,22.94
2022-11-06T07:12:20.590Z,22.93
2022-11-06T07:13:20.585Z,22.87
2022-11-06T07:14:20.568Z,22.93
2022-11-06T07:15:20.562Z,22.92
2022-11-06T07:16:20.546Z,22.90
2022-11-06T07:17:20.539Z,22.92
2022-11-06T07:18:20.523Z,22.87
2022-11-06T07:19:20.519Z,22.87
2022-11-06T07:20:20.507Z,22.90
2022-11-06T07:21:20.489Z,22.93
2022-11-06T07:22:28.652Z,22.96
2022-11-06T07:23:21.466Z,22.87
2022-11-06T07:24:20.473Z,22.90
2022-11-06T07:25:20.474Z,22.90
2022-11-06T07:26:20.433Z,22.89
2022-11-06T07:27:20.425Z,22.93
2022-11-06T07:28:20.421Z,22.94
2022-11-06T07:29:20.399Z,22.93
2022-11-06T07:30:20.390Z,22.89
2022-11-06T07:31:20.399Z,22.86
2022-11-06T07:32:20.366Z,22.92
2022-11-06T07:33:20.356Z,22.93
2022-11-06T07:34:20.347Z,22.86
2022-11-06T07:35:20.333Z,22.93
2022-11-06T07:36:20.322Z,22.89
2022-11-06T07:37:20.319Z,22.92
2022-11-06T07:38:20.301Z,22.84
2022-11-06T07:39:20.288Z,22.89
2022-11-06T07:40:20.297Z,22.89
2022-11-06T07:41:20.266Z,22.84
2022-11-06T07:42:20.255Z,22.93
2022-11-06T07:43:20.259Z,22.96
2022-11-06T07:44:20.235Z,22.96
2022-11-06T07:45:20.227Z,22.83
2022-11-06T07:46:20.217Z,22.89
2022-11-06T07:47:20.203Z,22.87
2022-11-06T07:48:20.188Z,22.93
2022-11-06T07:49:20.198Z,22.96
2022-11-06T07:50:20.169Z,22.94
2022-11-06T07:51:20.155Z,23.02
2022-11-06T07:52:20.144Z,22.92
2022-11-06T07:53:20.133Z,22.97
2022-11-06T07:54:20.122Z,23.01
2022-11-06T07:55:20.131Z,22.92
2022-11-06T07:56:20.123Z,22.96
2022-11-06T07:57:20.088Z,23.01
2022-11-06T07:58:20.078Z,22.97
2022-11-06T07:59:20.068Z,23.08
2022-11-06T08:00:20.056Z,23.02
2022-11-06T08:01:20.204Z,23.01
2022-11-06T08:02:20.108Z,23.01
2022-11-06T08:03:20.026Z,22.96
2022-11-06T08:04:20.011Z,23.04
2022-11-06T08:05:20.003Z,22.96
2022-11-06T08:06:19.989Z,22.99
2022-11-06T08:07:19.982Z,23.11
2022-11-06T08:08:19.965Z,23.08
2022-11-06T08:09:19.955Z,23.07
2022-11-06T08:10:19.947Z,23.08
2022-11-06T08:11:19.933Z,23.12
2022-11-06T08:12:19.945Z,23.15
2022-11-06T08:13:19.917Z,23.26
2022-11-06T08:14:19.903Z,23.32
2022-11-06T08:15:19.892Z,23.52
2022-11-06T08:16:19.877Z,23.58
2022-11-06T08:17:19.866Z,23.67
2022-11-06T08:18:19.855Z,23.89
2022-11-06T08:19:19.862Z,23.82
2022-11-06T08:20:19.833Z,23.92
2022-11-06T08:21:19.821Z,24.02
2022-11-06T08:22:19.810Z,24.02
2022-11-06T08:23:19.802Z,24.08
2022-11-06T08:24:22.174Z,24.14
2022-11-06T08:25:19.783Z,24.19
2022-11-06T08:26:19.765Z,24.16
2022-11-06T08:27:19.755Z,24.13
2022-11-06T08:28:19.849Z,24.08
2022-11-06T08:29:19.733Z,24.20
2022-11-06T08:30:19.723Z,24.10
2022-11-06T08:31:19.731Z,24.10
2022-11-06T08:32:19.700Z,24.14
2022-11-06T08:33:19.690Z,24.00
2022-11-06T08:34:19.676Z,24.04
2022-11-06T08:35:19.666Z,24.02
2022-11-06T08:36:19.654Z,23.97
2022-11-06T08:37:19.672Z,23.92
2022-11-06T08:38:19.634Z,23.90
2022-11-06T08:39:19.621Z,23.82
2022-11-06T08:40:19.611Z,23.72
2022-11-06T08:41:19.599Z,23.68
2022-11-06T08:42:19.590Z,23.72
2022-11-06T08:43:19.583Z,23.82
2022-11-06T08:44:19.584Z,23.75
2022-11-06T08:45:19.555Z,23.75
2022-11-06T08:46:19.543Z,23.75
2022-11-06T08:47:19.534Z,23.72
2022-11-06T08:48:19.528Z,23.80
2022-11-06T08:49:19.534Z,23.76
2022-11-06T08:50:19.507Z,23.77
2022-11-06T08:51:19.489Z,23.79
2022-11-06T08:52:19.478Z,23.82
2022-11-06T08:53:19.558Z,23.79
2022-11-06T08:54:19.458Z,23.80
2022-11-06T08:55:19.466Z,23.89
2022-11-06T08:56:19.434Z,23.86
2022-11-06T08:57:19.423Z,23.92
2022-11-06T08:58:19.415Z,23.94
2022-11-06T08:59:19.405Z,24.01
2022-11-06T09:00:19.404Z,23.98
2022-11-06T09:01:19.625Z,24.05
2022-11-06T09:02:19.478Z,24.07
2022-11-06T09:03:19.358Z,24.07
2022-11-06T09:04:19.345Z,24.16
2022-11-06T09:05:19.336Z,24.23
2022-11-06T09:06:19.323Z,24.13
2022-11-06T09:07:19.319Z,24.23
2022-11-06T09:08:19.302Z,24.17
2022-11-06T09:09:19.290Z,24.16
2022-11-06T09:10:19.279Z,24.26
2022-11-06T09:11:19.269Z,24.26
2022-11-06T09:12:19.258Z,24.26
2022-11-06T09:13:19.276Z,24.26
2022-11-06T09:14:19.234Z,24.17
2022-11-06T09:15:19.228Z,24.17
2022-11-06T09:16:19.231Z,24.26
2022-11-06T09:17:19.201Z,24.24
2022-11-06T09:18:19.195Z,24.17
2022-11-06T09:19:19.185Z,24.19
2022-11-06T09:20:19.168Z,24.29
2022-11-06T09:21:19.157Z,24.20
2022-11-06T09:22:19.146Z,24.24
2022-11-06T09:23:19.135Z,24.27
2022-11-06T09:24:32.014Z,24.22
2022-11-06T09:25:20.132Z,24.19
2022-11-06T09:26:19.108Z,24.26
2022-11-06T09:27:19.090Z,24.27
2022-11-06T09:28:19.080Z,24.23
2022-11-06T09:29:19.068Z,24.31
2022-11-06T09:30:19.058Z,24.29
2022-11-06T09:31:19.051Z,24.32
2022-11-06T09:32:19.055Z,24.23
2022-11-06T09:33:19.472Z,24.32
2022-11-06T09:34:19.016Z,24.34
2022-11-06T09:35:19.001Z,24.45
2022-11-06T09:36:18.990Z,24.35
2022-11-06T09:37:18.990Z,24.42
2022-11-06T09:38:18.983Z,24.37
2022-11-06T09:39:18.959Z,24.42
2022-11-06T09:40:18.947Z,24.44
2022-11-06T09:41:18.935Z,24.47
2022-11-06T09:42:18.925Z,24.47
2022-11-06T09:43:31.768Z,24.49
2022-11-06T09:44:19.904Z,24.53
2022-11-06T09:45:18.892Z,24.52
2022-11-06T09:46:18.880Z,24.54
2022-11-06T09:47:18.870Z,24.60
2022-11-06T09:48:18.877Z,24.61
2022-11-06T09:49:18.877Z,24.68
2022-11-06T09:50:18.836Z,24.60
2022-11-06T09:51:18.825Z,24.68
2022-11-06T09:52:18.816Z,24.61
2022-11-06T09:53:19.501Z,24.71
2022-11-06T09:54:18.793Z,24.77
2022-11-06T09:55:18.787Z,24.77
2022-11-06T09:56:18.769Z,24.69
2022-11-06T09:57:18.759Z,24.76
2022-11-06T09:58:18.750Z,24.85
2022-11-06T09:59:18.737Z,24.80
2022-11-06T10:00:18.727Z,24.80
2022-11-06T10:01:24.586Z,24.80
2022-11-06T10:02:19.813Z,24.79
2022-11-06T10:03:18.691Z,24.87
2022-11-06T10:04:18.705Z,24.80
2022-11-06T10:05:18.669Z,24.79
2022-11-06T10:06:18.658Z,24.91
2022-11-06T10:07:18.669Z,24.77
2022-11-06T10:08:18.651Z,24.79
2022-11-06T10:09:18.625Z,24.82
2022-11-06T10:10:18.616Z,24.91
2022-11-06T10:11:18.605Z,24.90
2022-11-06T10:12:18.592Z,24.91
2022-11-06T10:13:18.586Z,24.94
2022-11-06T10:14:18.570Z,24.92
2022-11-06T10:15:18.559Z,25.07
2022-11-06T10:16:18.548Z,25.07
2022-11-06T10:17:18.537Z,24.98
2022-11-06T10:18:18.528Z,25.02
2022-11-06T10:19:18.520Z,25.07
2022-11-06T10:20:23.638Z,25.05
2022-11-06T10:21:19.493Z,25.01
2022-11-06T10:22:18.485Z,25.07
2022-11-06T10:23:18.469Z,25.09
2022-11-06T10:24:18.460Z,25.07
2022-11-06T10:25:18.477Z,25.06
2022-11-06T10:26:18.445Z,25.16
2022-11-06T10:27:18.426Z,25.10
2022-11-06T10:28:18.414Z,25.15
2022-11-06T10:29:18.405Z,25.17
2022-11-06T10:30:18.428Z,25.22
2022-11-06T10:31:18.407Z,25.24
2022-11-06T10:32:18.372Z,25.31
2022-11-06T10:33:18.358Z,25.28
2022-11-06T10:34:18.348Z,25.31
2022-11-06T10:35:18.338Z,25.25
2022-11-06T10:36:18.343Z,25.24
2022-11-06T10:37:18.338Z,25.31
2022-11-06T10:38:18.306Z,25.28
2022-11-06T10:39:18.293Z,25.31
2022-11-06T10:40:18.284Z,25.35
2022-11-06T10:41:18.270Z,25.37
2022-11-06T10:42:18.261Z,25.30
2022-11-06T10:43:18.254Z,25.35
2022-11-06T10:44:18.238Z,25.34
2022-11-06T10:45:18.233Z,25.44
2022-11-06T10:46:18.214Z,25.38
2022-11-06T10:47:18.205Z,25.42
2022-11-06T10:48:18.193Z,25.53
2022-11-06T10:49:18.189Z,25.46
2022-11-06T10:50:18.174Z,25.53
2022-11-06T10:51:18.161Z,25.53
2022-11-06T10:52:18.171Z,25.57
2022-11-06T10:53:18.139Z,25.54
2022-11-06T10:54:18.132Z,25.53
2022-11-06T10:55:18.122Z,25.56
2022-11-06T10:56:21.095Z,25.61
2022-11-06T10:57:18.095Z,25.61
2022-11-06T10:58:18.086Z,25.64
2022-11-06T10:59:18.074Z,25.62
2022-11-06T11:00:18.061Z,25.54
2022-11-06T11:01:18.128Z,25.72
2022-11-06T11:02:18.071Z,25.69
2022-11-06T11:03:18.027Z,25.71
2022-11-06T11:04:18.018Z,25.71
2022-11-06T11:05:18.005Z,25.75
2022-11-06T11:06:17.995Z,25.69
2022-11-06T11:07:21.631Z,25.74
2022-11-06T11:08:17.990Z,25.82
2022-11-06T11:09:17.961Z,25.87
2022-11-06T11:10:17.951Z,25.79
2022-11-06T11:11:17.944Z,25.84
2022-11-06T11:12:17.929Z,25.83
2022-11-06T11:13:17.924Z,25.83
2022-11-06T11:14:17.906Z,25.91
2022-11-06T11:15:17.895Z,25.93
2022-11-06T11:16:17.885Z,25.94
2022-11-06T11:17:17.878Z,25.89
2022-11-06T11:18:18.264Z,25.99
2022-11-06T11:19:17.859Z,25.89
2022-11-06T11:20:17.841Z,25.94
2022-11-06T11:21:17.829Z,25.97
2022-11-06T11:22:17.821Z,26.09
2022-11-06T11:23:17.862Z,26.08
2022-11-06T11:24:17.814Z,26.06
2022-11-06T11:25:17.790Z,26.04
2022-11-06T11:26:17.775Z,26.17
2022-11-06T11:27:17.765Z,26.15
2022-11-06T11:28:17.752Z,26.21
2022-11-06T11:29:17.745Z,26.15
2022-11-06T11:30:17.762Z,26.18
2022-11-06T11:31:17.725Z,26.22
2022-11-06T11:32:17.709Z,26.12
2022-11-06T11:33:17.697Z,26.25
2022-11-06T11:34:17.687Z,26.24
2022-11-06T11:35:17.675Z,26.28
2022-11-06T11:36:17.666Z,26.35
2022-11-06T11:37:17.683Z,26.36
2022-11-06T11:38:17.846Z,26.31
2022-11-06T11:39:17.632Z,26.29
2022-11-06T11:40:17.729Z,26.31
2022-11-06T11:41:17.609Z,26.37
2022-11-06T11:42:17.614Z,26.40
2022-11-06T11:43:17.592Z,26.40
2022-11-06T11:44:17.575Z,26.37
2022-11-06T11:45:17.564Z,26.31
2022-11-06T11:46:17.553Z,26.35
2022-11-06T11:47:17.543Z,26.32
2022-11-06T11:48:17.678Z,26.37
2022-11-06T11:49:17.528Z,26.35
2022-11-06T11:50:17.511Z,26.44
2022-11-06T11:51:17.498Z,26.44
2022-11-06T11:52:17.488Z,26.42
2022-11-06T11:53:17.478Z,26.52
2022-11-06T11:54:17.466Z,26.46
2022-11-06T11:55:17.460Z,26.47
2022-11-06T11:56:30.956Z,26.49
2022-11-06T11:57:18.432Z,26.40
2022-11-06T11:58:17.422Z,26.55
2022-11-06T11:59:17.411Z,26.46
2022-11-06T12:00:17.453Z,26.55
2022-11-06T12:01:17.394Z,26.54
2022-11-06T12:02:20.906Z,26.61
2022-11-06T12:03:18.405Z,26.57
2022-11-06T12:04:17.360Z,26.55
2022-11-06T12:05:17.347Z,26.59
2022-11-06T12:06:17.336Z,26.59
2022-11-06T12:07:17.387Z,26.59
2022-11-06T12:08:17.334Z,26.57
2022-11-06T12:09:17.302Z,26.67
2022-11-06T12:10:17.289Z,26.62
2022-11-06T12:11:17.283Z,26.59
2022-11-06T12:12:17.285Z,26.61
2022-11-06T12:13:17.286Z,26.54
2022-11-06T12:14:17.249Z,26.65
2022-11-06T12:15:17.235Z,26.59
2022-11-06T12:16:17.226Z,26.62
2022-11-06T12:17:17.219Z,26.62
2022-11-06T12:18:17.419Z,26.72
2022-11-06T12:19:17.196Z,26.73
2022-11-06T12:20:17.185Z,26.64
2022-11-06T12:21:17.170Z,26.67
2022-11-06T12:22:17.158Z,26.73
2022-11-06T12:23:17.147Z,26.67
2022-11-06T12:24:17.144Z,26.59
2022-11-06T12:25:17.130Z,26.72
2022-11-06T12:26:17.114Z,26.65
2022-11-06T12:27:17.103Z,26.62
2022-11-06T12:28:17.200Z,26.69
2022-11-06T12:29:17.099Z,26.76
2022-11-06T12:30:17.069Z,26.68
2022-11-06T12:31:17.065Z,26.72
2022-11-06T12:32:17.047Z,26.74
2022-11-06T12:33:17.037Z,26.77
2022-11-06T12:34:17.808Z,26.68
2022-11-06T12:35:17.018Z,26.68
2022-11-06T12:36:17.003Z,26.69
2022-11-06T12:37:17.000Z,26.67
2022-11-06T12:38:17.368Z,26.72
2022-11-06T12:39:16.972Z,26.79
2022-11-06T12:40:20.838Z,26.67
2022-11-06T12:41:17.948Z,26.77
2022-11-06T12:42:16.938Z,26.67
2022-11-06T12:43:16.943Z,26.73
2022-11-06T12:44:16.942Z,26.76
2022-11-06T12:45:16.905Z,26.77
2022-11-06T12:46:16.893Z,26.69
2022-11-06T12:47:16.884Z,26.65
2022-11-06T12:48:17.106Z,26.67
2022-11-06T12:49:16.889Z,26.69
2022-11-06T12:50:16.853Z,26.74
2022-11-06T12:51:16.839Z,26.79
2022-11-06T12:52:16.829Z,26.69